Time;durP1;ratioP1;P1;durP2;ratioP2;P2;SDS_P1;SDS_P2;PMS_P1;PMS_P2;Temp;Humidity;BMP_temperature;BMP_pressure;BME280_temperature;BME280_humidity;BME280_pressure;Samples;Min_cycle;Max_cycle;Signal;HPM_P1;HPM_P2
2022/07/16 00:01:47;;;;;;;4.45;4.05;;;;;;;18.99;65.11;96931.66;5011969;28;20531;-61
2022/07/16 00:04:14;;;;;;;4.30;4.00;;;;;;;16.90;65.09;96598.34;5007812;28;20558;-70
2022/07/16 00:06:43;;;;;;;5.43;3.83;;;;;;;18.89;65.00;96905.38;5013251;28;20096;-69
2022/07/16 00:09:11;;;;;;;5.75;3.63;;;;;;;18.98;65.65;96933.69;5007613;28;20054;-61
2022/07/16 00:11:38;;;;;;;5.30;3.83;;;;;;;18.93;65.97;96933.38;5012689;28;20068;-61
2022/07/16 00:14:05;;;;;;;3.90;3.60;;;;;;;18.80;65.89;96927.59;5007266;28;20050;-71
2022/07/16 00:16:31;;;;;;;4.30;3.90;;;;;;;18.16;66.02;96817.66;5012478;28;20054;-69
2022/07/16 00:19:19;;;;;;;3.60;3.40;;;;;;;18.87;66.07;96930.28;5007347;28;20061;-69
2022/07/16 00:21:52;;;;;;;4.32;3.78;;;;;;;18.80;66.05;96930.41;5012875;28;20539;-68
2022/07/16 00:24:19;;;;;;;4.43;4.03;;;;;;;18.45;66.11;96874.88;5022782;28;20057;-60
2022/07/16 00:26:47;;;;;;;3.92;3.63;;;;;;;18.70;66.55;96931.34;5014522;28;20054;-68
2022/07/16 00:29:15;;;;;;;4.97;3.42;;;;;;;18.75;66.38;96932.88;5006012;28;20525;-69
2022/07/16 00:31:43;;;;;;;5.03;3.50;;;;;;;18.75;66.04;96933.69;5010028;28;20049;-68
2022/07/16 00:34:09;;;;;;;3.92;3.63;;;;;;;18.70;65.65;96920.13;5006985;28;20057;-68
2022/07/16 00:36:38;;;;;;;3.80;3.50;;;;;;;18.73;65.88;96930.50;5011418;28;20042;-59
2022/07/16 00:39:07;;;;;;;4.65;3.80;;;;;;;18.46;66.19;96898.91;5007014;28;20238;-67
2022/07/16 00:41:39;;;;;;;3.92;3.63;;;;;;;18.56;66.30;96937.19;5011677;28;20054;-67
2022/07/16 00:44:09;;;;;;;3.88;3.55;;;;;;;18.59;66.47;96925.13;5006497;28;20061;-69
2022/07/16 00:46:36;;;;;;;3.67;3.47;;;;;;;18.70;66.03;96925.75;5011929;28;20054;-60
2022/07/16 00:49:04;;;;;;;3.72;3.50;;;;;;;18.67;66.35;96923.78;5006724;28;20054;-61
2022/07/16 00:51:31;;;;;;;4.80;3.60;;;;;;;18.34;66.46;96868.59;5011516;28;20058;-67
2022/07/16 00:53:59;;;;;;;4.68;4.28;;;;;;;18.71;66.48;96920.94;5007245;28;20461;-68
2022/07/16 00:56:26;;;;;;;5.28;4.18;;;;;;;18.58;66.32;96878.66;5008613;28;20054;-61
2022/07/16 00:58:56;;;;;;;4.82;3.63;;;;;;;18.69;66.75;96912.16;5004916;28;20505;-69
2022/07/16 01:01:23;;;;;;;3.95;3.55;;;;;;;18.72;66.40;96906.47;5011139;28;20062;-68
2022/07/16 01:03:50;;;;;;;5.03;4.47;;;;;;;18.66;66.22;96913.81;5005045;28;20049;-68
2022/07/16 01:06:18;;;;;;;3.78;3.47;;;;;;;18.54;66.83;96903.16;5006536;28;20120;-60
2022/07/16 01:08:47;;;;;;;5.80;3.60;;;;;;;18.50;67.19;96910.06;5006346;28;20057;-67
2022/07/16 01:11:16;;;;;;;4.55;3.80;;;;;;;18.55;66.99;96907.56;5010876;28;20056;-60
2022/07/16 01:13:46;;;;;;;5.47;3.80;;;;;;;18.42;66.95;96889.75;5004938;28;20088;-61
2022/07/16 01:16:14;;;;;;;3.90;3.60;;;;;;;18.53;66.60;96910.00;5011281;28;20062;-70
2022/07/16 01:18:42;;;;;;;5.47;4.00;;;;;;;18.43;66.97;96916.56;5006007;28;20045;-60
2022/07/16 01:21:11;;;;;;;3.55;3.35;;;;;;;18.20;66.79;96868.84;5011070;28;20132;-60
2022/07/16 01:23:38;;;;;;;3.60;3.30;;;;;;;18.42;66.77;96909.38;5006232;28;20101;-63
2022/07/16 01:26:04;;;;;;;5.22;3.38;;;;;;;18.06;67.13;96858.66;5011025;28;20061;-69
2022/07/16 01:28:31;;;;;;;4.22;3.85;;;;;;;17.98;68.26;96884.38;5006383;28;20057;-60
2022/07/16 01:30:58;;;;;;;5.03;3.78;;;;;;;18.13;68.03;96907.41;5010632;28;20053;-63
2022/07/16 01:33:36;;;;;;;3.88;3.58;;;;;;;18.21;67.69;96897.69;5011192;28;20608;-70
2022/07/16 01:36:13;;;;;;;3.55;3.35;;;;;;;18.25;67.86;96896.41;5010494;28;20050;-68
2022/07/16 01:38:43;;;;;;;5.40;3.70;;;;;;;18.27;67.57;96902.38;5005714;28;20080;-61
2022/07/16 01:41:11;;;;;;;4.13;3.83;;;;;;;18.15;67.97;96911.38;5010724;28;20054;-68
2022/07/16 01:43:38;;;;;;;6.13;4.18;;;;;;;17.78;68.11;96847.06;5005811;28;20062;-60
2022/07/16 01:46:04;;;;;;;3.85;3.47;;;;;;;18.18;67.97;96902.09;5010729;28;20049;-68
2022/07/16 01:48:32;;;;;;;4.95;3.75;;;;;;;18.07;69.52;96909.88;5004450;28;20054;-69
2022/07/16 01:50:59;;;;;;;4.00;3.70;;;;;;;18.06;69.41;96897.09;5010808;28;20129;-69
2022/07/16 01:53:28;;;;;;;6.50;3.78;;;;;;;18.10;68.69;96898.63;5004257;28;20060;-61
2022/07/16 01:55:55;;;;;;;5.63;3.60;;;;;;;17.98;69.86;96901.22;5011055;28;20050;-60
2022/07/16 01:58:22;;;;;;;4.40;3.50;;;;;;;17.88;70.19;96896.53;5005239;28;20877;-68
2022/07/16 02:00:49;;;;;;;6.25;3.75;;;;;;;17.67;70.40;96894.03;5010821;28;20060;-61
2022/07/16 02:03:16;;;;;;;4.90;3.45;;;;;;;17.65;71.75;96893.66;5005569;28;20056;-67
2022/07/16 02:05:43;;;;;;;4.32;3.92;;;;;;;17.80;71.75;96895.84;5009384;28;20084;-59
2022/07/16 02:08:10;;;;;;;3.70;3.40;;;;;;;17.74;71.97;96907.94;5003893;28;20543;-60
2022/07/16 02:10:37;;;;;;;4.13;3.80;;;;;;;17.31;71.71;96834.84;5011437;28;20057;-60
2022/07/16 02:13:05;;;;;;;4.00;3.70;;;;;;;15.72;71.59;96577.84;5005585;28;20053;-59
2022/07/16 02:15:32;;;;;;;4.60;3.70;;;;;;;17.80;71.15;96904.25;5010011;28;20065;-62
2022/07/16 02:18:00;;;;;;;5.15;4.13;;;;;;;17.32;71.58;96858.03;5003749;28;20460;-69
2022/07/16 02:20:27;;;;;;;5.47;3.97;;;;;;;17.45;73.59;96889.94;5009444;28;20057;-60
2022/07/16 02:22:55;;;;;;;5.20;4.63;;;;;;;17.58;73.50;96896.53;5005997;28;20056;-66
2022/07/16 02:25:22;;;;;;;4.35;3.65;;;;;;;17.49;72.26;96896.25;5008041;28;20045;-66
2022/07/16 02:28:07;;;;;;;4.93;4.07;;;;;;;17.44;73.84;96905.09;5006654;28;20065;-68
2022/07/16 02:30:39;;;;;;;8.93;3.90;;;;;;;17.52;73.32;96912.22;5010250;28;20049;-60
2022/07/16 02:33:08;;;;;;;17.77;5.88;;;;;;;16.93;75.90;96905.28;5003579;28;20046;-62
2022/07/16 02:35:36;;;;;;;7.47;4.45;;;;;;;16.92;77.36;96976.41;5009098;28;20060;-68
2022/07/16 02:38:03;;;;;;;8.95;4.90;;;;;;;17.03;76.54;96895.97;5005358;28;20061;-68
2022/07/16 02:40:32;;;;;;;5.75;4.15;;;;;;;17.33;74.43;96910.81;5008889;28;20049;-68
2022/07/16 02:43:00;;;;;;;6.90;4.13;;;;;;;17.25;73.67;96902.91;5005054;28;20054;-69
2022/07/16 02:45:27;;;;;;;6.10;3.88;;;;;;;16.83;72.88;96837.03;5009776;28;20583;-68
2022/07/16 02:47:54;;;;;;;6.40;3.85;;;;;;;17.45;73.06;96921.50;5014466;28;20050;-60
2022/07/16 02:50:21;;;;;;;5.28;3.78;;;;;;;17.40;72.99;96901.56;5007712;28;20048;-60
2022/07/16 02:52:48;;;;;;;4.50;3.80;;;;;;;17.56;72.98;96924.97;5010366;28;20064;-60
2022/07/16 02:55:15;;;;;;;4.07;3.78;;;;;;;17.58;72.82;96938.56;5011614;28;20100;-68
2022/07/16 02:57:42;;;;;;;4.75;4.30;;;;;;;17.49;71.94;96929.88;5009366;28;20085;-68
2022/07/16 03:00:12;;;;;;;5.88;3.75;;;;;;;17.46;72.46;96930.72;5009385;28;20042;-60
2022/07/16 03:02:40;;;;;;;4.10;3.55;;;;;;;17.21;71.97;96880.59;5011749;28;20877;-60
2022/07/16 03:05:08;;;;;;;4.68;3.60;;;;;;;17.54;71.76;96921.00;5009622;28;20650;-59
2022/07/16 03:07:35;;;;;;;4.40;4.03;;;;;;;17.59;71.03;96928.97;5008867;28;20049;-59
2022/07/16 03:10:02;;;;;;;4.63;3.90;;;;;;;17.67;71.05;96924.84;5009574;28;20049;-60
2022/07/16 03:12:29;;;;;;;5.10;4.05;;;;;;;17.75;70.71;96931.97;5011748;28;20062;-63
2022/07/16 03:14:57;;;;;;;3.80;3.40;;;;;;;17.64;70.11;96908.88;5009691;28;20459;-60
2022/07/16 03:17:24;;;;;;;5.78;3.67;;;;;;;17.60;70.57;96902.53;5010699;28;20046;-61
2022/07/16 03:19:50;;;;;;;5.32;3.92;;;;;;;17.85;70.02;96928.22;5007811;28;20057;-68
2022/07/16 03:22:18;;;;;;;3.75;3.45;;;;;;;17.73;70.58;96937.19;5011058;28;20053;-61
2022/07/16 03:24:44;;;;;;;5.75;4.32;;;;;;;17.88;70.07;96930.16;5007971;28;20049;-62
2022/07/16 03:27:12;;;;;;;4.88;4.00;;;;;;;17.86;69.89;96916.56;5007933;28;20041;-70
2022/07/16 03:29:39;;;;;;;5.50;3.88;;;;;;;17.49;70.15;96840.25;5007827;28;20053;-69
2022/07/16 03:32:06;;;;;;;3.97;3.42;;;;;;;17.92;70.11;96964.56;5007829;28;20136;-62
2022/07/16 03:34:34;;;;;;;4.20;3.70;;;;;;;17.98;69.86;96941.25;5006475;28;20057;-67
2022/07/16 03:37:01;;;;;;;3.97;3.47;;;;;;;17.86;69.86;96918.59;5012850;28;20049;-69
2022/07/16 03:39:28;;;;;;;4.20;3.78;;;;;;;17.97;69.96;96927.66;5008025;28;20109;-62
2022/07/16 03:41:55;;;;;;;4.82;3.80;;;;;;;17.99;70.24;96931.63;5008617;28;20062;-61
2022/07/16 03:44:22;;;;;;;4.30;3.50;;;;;;;18.04;70.37;96924.75;5025106;28;20056;-62
2022/07/16 03:46:48;;;;;;;3.65;3.35;;;;;;;18.17;69.86;96936.97;5020253;28;20054;-67
2022/07/16 03:49:15;;;;;;;4.88;3.40;;;;;;;18.15;69.69;96916.97;5007965;28;20444;-68
2022/07/16 03:51:42;;;;;;;4.68;3.42;;;;;;;18.36;68.82;96939.09;5012228;28;20052;-60
2022/07/16 03:54:08;;;;;;;4.78;3.60;;;;;;;18.21;68.76;96909.66;5008290;28;20057;-62
2022/07/16 03:56:35;;;;;;;6.97;3.85;;;;;;;18.53;69.08;96935.25;5012644;28;20057;-60
2022/07/16 03:59:02;;;;;;;3.95;3.63;;;;;;;18.31;68.54;96908.72;5007887;28;20061;-69
2022/07/16 04:01:29;;;;;;;5.40;3.85;;;;;;;18.69;68.49;96941.00;5012368;28;20054;-61
2022/07/16 04:03:55;;;;;;;13.40;3.97;;;;;;;18.87;67.68;96941.50;5007115;28;20513;-68
2022/07/16 04:06:22;;;;;;;4.50;3.70;;;;;;;19.08;66.82;96941.13;5015384;28;20049;-68
2022/07/16 04:08:49;;;;;;;5.72;3.83;;;;;;;19.31;65.47;96938.34;5009466;28;20060;-61
2022/07/16 04:11:16;;;;;;;5.68;4.05;;;;;;;19.16;64.73;96889.22;5014249;28;20110;-60
2022/07/16 04:13:43;;;;;;;4.45;3.72;;;;;;;19.73;64.43;96936.69;5008515;28;20053;-60
2022/07/16 04:16:11;;;;;;;3.92;3.63;;;;;;;19.85;64.01;96943.69;5013402;28;20115;-60
2022/07/16 04:18:39;;;;;;;5.45;3.88;;;;;;;17.47;63.73;96557.81;5024717;28;20135;-68
2022/07/16 04:21:06;;;;;;;4.00;3.60;;;;;;;20.10;63.79;96939.13;5010220;28;20068;-68
2022/07/16 04:23:33;;;;;;;5.85;4.47;;;;;;;20.10;63.36;96921.44;5007232;28;20046;-68
2022/07/16 04:26:00;;;;;;;5.78;3.40;;;;;;;20.01;62.72;96879.84;5010725;28;20046;-68
2022/07/16 04:28:27;;;;;;;6.18;4.40;;;;;;;20.52;62.42;96938.16;5013309;28;20062;-60
2022/07/16 04:30:53;;;;;;;4.70;4.07;;;;;;;20.31;61.79;96881.63;5012109;28;20061;-60
2022/07/16 04:33:20;;;;;;;7.95;4.55;;;;;;;20.90;61.70;96941.25;5005536;28;20432;-68
2022/07/16 04:35:48;;;;;;;7.03;4.00;;;;;;;20.96;60.65;96939.53;5011735;28;20465;-60
2022/07/16 04:38:16;;;;;;;4.13;3.72;;;;;;;21.14;60.18;96942.69;5015989;28;20140;-61
2022/07/16 04:40:43;;;;;;;7.70;5.20;;;;;;;21.39;59.95;96940.00;5017242;28;20061;-66
2022/07/16 04:43:10;;;;;;;10.27;4.55;;;;;;;21.55;60.39;96934.31;5009822;28;20053;-68
2022/07/16 04:45:37;;;;;;;4.75;4.35;;;;;;;21.55;59.99;96917.41;5011775;28;20045;-68
2022/07/16 04:48:04;;;;;;;15.68;4.82;;;;;;;21.05;61.52;96829.84;5010184;28;20428;-71
2022/07/16 04:50:30;;;;;;;7.28;5.72;;;;;;;21.51;61.15;96891.38;5011512;28;20130;-68
2022/07/16 04:52:57;;;;;;;5.00;4.47;;;;;;;21.40;60.65;96878.78;5005589;28;20053;-70
2022/07/16 04:55:24;;;;;;;6.13;5.00;;;;;;;21.85;59.88;96925.44;5008997;28;20056;-69
2022/07/16 04:57:51;;;;;;;6.22;4.88;;;;;;;22.03;59.60;96937.00;5007295;28;20328;-67
2022/07/16 05:00:24;;;;;;;6.32;4.78;;;;;;;21.68;58.88;96844.94;5009001;28;20524;-62
2022/07/16 05:02:56;;;;;;;5.50;4.75;;;;;;;22.35;59.39;96927.56;5006689;28;20053;-69
2022/07/16 05:05:32;;;;;;;6.88;3.97;;;;;;;22.26;58.21;96885.09;5008639;28;20133;-68
2022/07/16 05:08:05;;;;;;;5.68;4.82;;;;;;;22.63;58.29;96931.53;5005676;28;20057;-63
2022/07/16 05:10:32;;;;;;;4.45;4.15;;;;;;;22.65;57.96;96923.41;5010451;28;20049;-69
2022/07/16 05:12:59;;;;;;;5.13;4.45;;;;;;;22.53;57.77;96887.50;5005940;28;20127;-69
2022/07/16 05:15:27;;;;;;;6.93;4.53;;;;;;;22.95;56.93;96900.22;5009934;28;20052;-61
2022/07/16 05:17:54;;;;;;;6.72;5.10;;;;;;;22.89;57.75;96893.56;5006793;28;20062;-61
2022/07/16 05:20:21;;;;;;;9.27;4.97;;;;;;;22.89;57.89;96883.03;5008948;28;20054;-61
2022/07/16 05:22:48;;;;;;;6.68;5.00;;;;;;;23.41;56.96;96920.00;5007548;28;20058;-61
2022/07/16 05:25:15;;;;;;;8.40;5.15;;;;;;;23.66;56.79;96925.56;5009454;28;20056;-60
2022/07/16 05:27:43;;;;;;;6.35;5.43;;;;;;;23.75;56.51;96927.69;5006320;28;20061;-60
2022/07/16 05:30:10;;;;;;;12.07;5.25;;;;;;;23.59;58.02;96925.03;5007451;28;20049;-68
2022/07/16 05:32:40;;;;;;;6.75;5.10;;;;;;;23.79;57.13;96912.16;5008309;28;20531;-61
2022/07/16 05:35:09;;;;;;;12.20;5.75;;;;;;;23.90;56.77;96894.75;5005531;28;20148;-60
2022/07/16 05:37:36;;;;;;;5.70;5.25;;;;;;;24.34;55.95;96918.97;5005638;28;20060;-67
2022/07/16 05:40:03;;;;;;;9.18;5.55;;;;;;;24.06;56.61;96835.16;5006452;28;20053;-68
2022/07/16 05:42:30;;;;;;;7.18;5.75;;;;;;;24.48;56.04;96890.09;5009476;28;20049;-67
2022/07/16 05:44:56;;;;;;;6.15;4.70;;;;;;;24.14;55.72;96836.44;5005596;28;20050;-67
2022/07/16 05:47:23;;;;;;;7.57;5.25;;;;;;;24.79;55.18;96907.88;5010365;28;20057;-62
2022/07/16 05:51:36;;;;;;;5.75;5.25;;;;;;;25.25;54.83;96926.56;5046672;28;20416;-69
2022/07/16 05:54:02;;;;;;;9.25;5.35;;;;;;;25.45;54.42;96922.53;5041381;28;20439;-69
2022/07/16 05:56:29;;;;;;;10.20;5.25;;;;;;;25.61;53.68;96928.66;5038150;28;20515;-69
2022/07/16 05:59:01;;;;;;;8.57;6.03;;;;;;;25.74;53.06;96912.28;5041714;28;20061;-67
2022/07/16 06:01:31;;;;;;;10.48;5.65;;;;;;;25.94;51.84;96903.28;5040745;28;20053;-70
2022/07/16 06:03:58;;;;;;;8.52;6.28;;;;;;;26.19;51.63;96932.13;5041074;28;20539;-68
2022/07/16 06:06:25;;;;;;;8.93;6.15;;;;;;;26.41;51.60;96920.56;5039050;28;20049;-72
2022/07/16 06:08:52;;;;;;;8.77;5.65;;;;;;;26.71;50.81;96928.06;5039729;28;20423;-67
2022/07/16 06:11:18;;;;;;;6.85;5.97;;;;;;;26.88;49.97;96917.88;5038262;28;20061;-62
2022/07/16 06:13:45;;;;;;;6.85;6.28;;;;;;;27.04;49.23;96900.41;5039535;28;20064;-65
2022/07/16 06:16:12;;;;;;;11.27;6.32;;;;;;;27.41;48.89;96907.47;5039681;28;20493;-64
2022/07/16 06:18:39;;;;;;;6.75;5.97;;;;;;;27.71;48.21;96909.13;5040451;28;20049;-68
2022/07/16 06:21:06;;;;;;;9.05;5.88;;;;;;;27.87;47.21;96922.13;5032591;28;20076;-65
2022/07/16 06:23:32;;;;;;;7.18;6.10;;;;;;;28.14;46.41;96908.44;5040482;28;20085;-64
2022/07/16 06:25:59;;;;;;;6.50;5.95;;;;;;;28.14;44.68;96868.56;5039916;28;20056;-62
2022/07/16 06:28:26;;;;;;;8.50;6.18;;;;;;;28.65;43.12;96895.88;5040638;28;20057;-66
2022/07/16 06:30:53;;;;;;;11.60;5.93;;;;;;;28.56;42.35;96853.25;5039663;28;20435;-69
2022/07/16 06:33:19;;;;;;;7.55;5.57;;;;;;;28.63;41.65;96835.75;5040148;28;20064;-71
2022/07/16 06:35:46;;;;;;;6.07;5.68;;;;;;;28.95;40.77;96851.75;5037991;28;20053;-61
2022/07/16 06:38:13;;;;;;;9.00;6.18;;;;;;;29.40;39.46;96853.97;5039999;28;20104;-68
2022/07/16 06:40:44;;;;;;;7.25;6.65;;;;;;;29.94;38.39;96892.28;5037898;28;20045;-69
2022/07/16 06:43:11;;;;;;;6.78;6.15;;;;;;;30.12;37.02;96949.91;5040207;28;20057;-60
2022/07/16 06:45:38;;;;;;;6.30;5.82;;;;;;;29.93;35.68;96834.34;5039458;28;20049;-64
2022/07/16 06:48:05;;;;;;;6.53;5.93;;;;;;;30.61;34.98;96895.31;5040320;28;20056;-71
2022/07/16 06:50:32;;;;;;;6.60;6.20;;;;;;;30.87;34.93;96886.72;5037780;28;20068;-71
2022/07/16 06:52:58;;;;;;;6.55;6.05;;;;;;;31.09;32.81;96878.28;5040365;28;20096;-74
2022/07/16 06:55:25;;;;;;;7.47;6.20;;;;;;;31.33;32.66;96883.66;5037256;28;20053;-68
2022/07/16 06:57:52;;;;;;;6.40;5.85;;;;;;;31.43;32.77;96885.78;5038197;28;20152;-66
2022/07/16 07:00:19;;;;;;;7.10;6.70;;;;;;;31.09;33.09;96794.47;5037428;28;20062;-62
2022/07/16 07:02:45;;;;;;;6.25;5.85;;;;;;;31.63;31.18;96867.66;5027539;28;20049;-60
2022/07/16 07:05:14;;;;;;;7.20;6.68;;;;;;;31.88;32.20;96895.38;5026521;28;20356;-65
2022/07/16 07:07:41;;;;;;;11.05;6.65;;;;;;;31.86;31.74;96864.38;5025089;28;20339;-67
2022/07/16 07:10:08;;;;;;;6.55;6.05;;;;;;;31.83;31.25;96856.78;5024906;28;20535;-68
2022/07/16 07:12:34;;;;;;;5.95;5.65;;;;;;;32.28;31.44;96877.72;5024945;28;20057;-68
2022/07/16 07:15:02;;;;;;;6.32;6.03;;;;;;;32.08;31.36;96877.97;5026491;28;20053;-68
2022/07/16 07:17:28;;;;;;;6.47;6.05;;;;;;;32.11;31.78;96868.31;5025072;28;20128;-61
2022/07/16 07:19:56;;;;;;;6.22;5.93;;;;;;;32.00;31.67;96885.50;5026474;28;20158;-68
2022/07/16 07:22:22;;;;;;;6.30;6.05;;;;;;;32.37;31.28;96889.00;5026017;28;20052;-66
2022/07/16 07:24:50;;;;;;;6.50;6.10;;;;;;;32.32;31.77;96846.72;5026307;28;20056;-66
2022/07/16 07:27:18;;;;;;;6.25;5.82;;;;;;;32.49;30.72;96881.97;5024412;28;20050;-62
2022/07/16 07:29:45;;;;;;;7.18;6.47;;;;;;;32.35;31.25;96874.38;5026079;28;20065;-71
2022/07/16 07:32:13;;;;;;;7.13;6.43;;;;;;;32.37;30.99;96871.81;5025942;28;20049;-60
2022/07/16 07:34:40;;;;;;;8.73;7.85;;;;;;;32.52;30.96;96878.06;5026014;28;20053;-67
2022/07/16 07:37:07;;;;;;;6.57;5.85;;;;;;;32.26;30.33;96851.69;5026064;28;20053;-68
2022/07/16 07:39:34;;;;;;;6.57;6.18;;;;;;;32.21;30.69;96884.00;5026039;28;20069;-70
2022/07/16 07:42:01;;;;;;;6.38;5.88;;;;;;;32.11;31.83;96888.41;5026086;28;20064;-70
2022/07/16 07:44:29;;;;;;;12.93;8.68;;;;;;;32.58;31.00;96892.41;5026064;28;20612;-69
2022/07/16 07:46:56;;;;;;;7.68;6.57;;;;;;;32.61;31.20;96874.94;5025341;28;20053;-67
2022/07/16 07:49:22;;;;;;;8.50;7.72;;;;;;;33.04;30.61;96884.84;5024412;28;20084;-60
2022/07/16 07:51:49;;;;;;;8.25;7.65;;;;;;;33.17;30.46;96882.22;5023721;28;20460;-71
2022/07/16 07:54:16;;;;;;;6.93;6.53;;;;;;;33.09;31.24;96904.16;5025683;28;20064;-60
2022/07/16 07:56:43;;;;;;;6.45;6.15;;;;;;;32.97;30.91;96879.66;5025417;28;20136;-58
2022/07/16 07:59:10;;;;;;;6.93;6.50;;;;;;;33.17;31.11;96887.97;5025117;28;20500;-64
2022/07/16 08:01:37;;;;;;;7.10;6.60;;;;;;;33.38;30.40;96892.09;5024777;28;20058;-58
2022/07/16 08:04:05;;;;;;;6.95;6.55;;;;;;;33.14;29.87;96843.06;5025182;28;20464;-66
2022/07/16 08:06:33;;;;;;;7.35;6.90;;;;;;;33.50;29.78;96887.91;5026000;28;20512;-72
2022/07/16 08:09:00;;;;;;;6.78;6.25;;;;;;;33.75;29.88;96898.25;5023964;28;20045;-70
2022/07/16 08:11:31;;;;;;;6.43;6.03;;;;;;;33.78;29.43;96877.09;5023942;28;20212;-59
2022/07/16 08:13:58;;;;;;;6.75;6.35;;;;;;;33.75;30.07;96892.50;5035697;28;20058;-66
2022/07/16 08:16:45;;;;;;;8.20;7.53;;;;;;;33.70;30.12;96835.81;5045372;28;20049;-67
2022/07/16 08:19:11;;;;;;;8.07;7.38;;;;;;;34.20;29.62;96875.06;5043993;28;20045;-58
2022/07/16 08:21:38;;;;;;;8.10;7.32;;;;;;;34.17;29.99;96879.78;5045067;28;20080;-66
2022/07/16 08:26:51;;;;;;;7.57;7.05;;;;;;;34.14;30.58;96854.19;5045040;28;20435;-67
2022/07/16 08:29:17;;;;;;;8.32;7.57;;;;;;;34.63;29.42;96887.63;5044610;28;20065;-61
2022/07/16 08:31:44;;;;;;;7.93;7.32;;;;;;;34.81;28.93;96878.28;5043233;28;20053;-58
2022/07/16 08:34:11;;;;;;;7.55;7.15;;;;;;;34.75;29.22;96883.31;5044771;28;20056;-57
2022/07/16 08:36:38;;;;;;;7.82;7.32;;;;;;;34.80;28.97;96876.72;5044458;28;20049;-62
2022/07/16 08:39:04;;;;;;;7.60;7.20;;;;;;;34.59;28.71;96869.84;5044926;28;20041;-67
2022/07/16 08:41:31;;;;;;;7.93;7.40;;;;;;;34.41;29.05;96804.34;5044596;28;20056;-64
2022/07/16 08:43:58;;;;;;;7.95;7.32;;;;;;;34.45;28.86;96873.88;5044659;28;20059;-66
2022/07/16 08:46:26;;;;;;;8.13;7.63;;;;;;;33.33;29.33;96844.06;5044609;28;20057;-67
2022/07/16 08:48:53;;;;;;;7.22;6.70;;;;;;;33.53;30.20;96869.59;5025062;28;20049;-65
2022/07/16 08:51:30;;;;;;;7.57;7.07;;;;;;;33.75;30.05;96880.22;5023983;28;20124;-66
2022/07/16 08:54:21;;;;;;;8.50;7.82;;;;;;;33.84;30.86;96887.78;5024755;28;20053;-58
2022/07/16 08:56:50;;;;;;;8.88;8.18;;;;;;;34.04;30.32;96873.06;5024518;28;20055;-58
2022/07/16 08:59:17;;;;;;;8.05;7.43;;;;;;;33.78;30.24;96885.69;5023946;28;20095;-61
2022/07/16 09:01:44;;;;;;;8.95;8.23;;;;;;;33.73;30.56;96866.38;5024334;28;20064;-60
2022/07/16 09:04:11;;;;;;;7.85;7.35;;;;;;;33.78;30.24;96881.28;5024826;28;20491;-64
2022/07/16 09:06:37;;;;;;;7.93;7.40;;;;;;;34.03;30.53;96883.81;5024387;28;20346;-64
2022/07/16 09:09:04;;;;;;;7.95;7.53;;;;;;;34.27;30.67;96880.25;5024164;28;20069;-65
2022/07/16 09:11:33;;;;;;;7.30;6.90;;;;;;;34.02;29.92;96890.09;5024570;28;20425;-65
2022/07/16 09:14:04;;;;;;;8.80;7.95;;;;;;;33.67;30.42;96885.00;5024403;28;20053;-58
2022/07/16 09:16:39;;;;;;;7.00;6.60;;;;;;;33.87;30.78;96880.97;5024035;28;20089;-58
2022/07/16 09:19:12;;;;;;;9.52;8.80;;;;;;;33.97;30.44;96885.13;5024570;28;20523;-58
2022/07/16 09:22:00;;;;;;;8.05;7.45;;;;;;;34.15;29.88;96878.75;5022513;28;20049;-60
2022/07/16 09:24:36;;;;;;;7.15;6.80;;;;;;;32.42;30.20;96678.88;5023590;28;20049;-59
2022/07/16 09:27:27;;;;;;;7.32;6.65;;;;;;;34.25;29.88;96885.75;5023164;28;20053;-59
2022/07/16 09:29:58;;;;;;;7.93;7.32;;;;;;;34.23;29.28;96891.25;5024347;28;20576;-58
2022/07/16 09:32:39;;;;;;;7.55;6.93;;;;;;;34.24;29.47;96892.84;5024285;28;20053;-58
2022/07/16 09:35:13;;;;;;;7.82;7.32;;;;;;;33.97;30.36;96888.00;5024134;28;20057;-58
2022/07/16 09:37:48;;;;;;;7.57;7.07;;;;;;;33.91;30.11;96898.75;5024271;28;20063;-66
2022/07/16 09:40:28;;;;;;;8.07;7.47;;;;;;;33.31;30.82;96852.41;5022541;28;20049;-66
2022/07/16 09:42:55;;;;;;;9.52;8.43;;;;;;;33.71;30.15;96886.28;5022312;28;20052;-58
2022/07/16 09:45:22;;;;;;;7.30;6.70;;;;;;;33.46;30.57;96884.53;5022499;28;20119;-59
2022/07/16 09:47:49;;;;;;;7.90;7.30;;;;;;;33.61;30.92;96881.34;5022526;28;20060;-65
2022/07/16 09:50:16;;;;;;;7.75;7.28;;;;;;;33.90;30.74;96891.44;5021881;28;20049;-66
2022/07/16 09:52:43;;;;;;;7.20;6.57;;;;;;;33.91;30.46;96867.91;5024058;28;20552;-58
2022/07/16 09:55:10;;;;;;;7.30;6.88;;;;;;;33.93;30.37;96878.88;5023895;28;20061;-66
2022/07/16 09:57:37;;;;;;;7.63;7.20;;;;;;;33.56;30.19;96870.66;5023747;28;20053;-66
2022/07/16 10:00:16;;;;;;;8.10;7.60;;;;;;;33.81;31.11;96880.22;5023974;28;20559;-65
2022/07/16 10:02:43;;;;;;;7.55;7.15;;;;;;;33.38;31.85;96886.38;5024120;28;20072;-59
2022/07/16 10:05:10;;;;;;;7.28;6.53;;;;;;;33.13;31.00;96824.28;5023923;28;20432;-57
2022/07/16 10:07:37;;;;;;;8.30;7.70;;;;;;;33.69;30.80;96893.84;5022660;28;20120;-58
2022/07/16 10:10:04;;;;;;;7.22;6.68;;;;;;;33.71;31.14;96868.22;5022253;28;20052;-57
2022/07/16 10:12:31;;;;;;;8.35;7.65;;;;;;;34.12;30.07;96877.72;5024045;28;20092;-60
2022/07/16 10:14:59;;;;;;;7.53;7.13;;;;;;;34.21;29.96;96879.50;5022442;28;20122;-65
2022/07/16 10:17:35;;;;;;;8.02;7.07;;;;;;;34.07;30.71;96861.28;5022681;28;20049;-65
2022/07/16 10:20:09;;;;;;;6.55;6.25;;;;;;;33.86;30.63;96867.91;5023873;28;20053;-65
2022/07/16 10:22:40;;;;;;;8.15;7.50;;;;;;;33.98;30.84;96863.69;5022842;28;20088;-63
2022/07/16 10:25:13;;;;;;;7.40;7.00;;;;;;;33.75;31.73;96881.00;5023896;28;20476;-64
2022/07/16 10:27:42;;;;;;;7.88;7.38;;;;;;;34.30;30.95;96879.19;5022650;28;20108;-58
2022/07/16 10:30:21;;;;;;;7.88;7.35;;;;;;;34.39;30.43;96876.00;5023804;28;20050;-65
2022/07/16 10:33:00;;;;;;;7.68;7.28;;;;;;;33.84;30.59;96877.06;5023880;28;20389;-57
2022/07/16 10:36:04;;;;;;;7.75;7.25;;;;;;;33.72;31.69;96873.47;5023731;28;20440;-58
2022/07/16 10:38:31;;;;;;;8.20;7.55;;;;;;;33.57;31.05;96834.88;5027323;28;20045;-57
2022/07/16 10:41:15;;;;;;;7.88;7.28;;;;;;;33.60;31.51;96863.31;5025605;28;20052;-59
2022/07/16 10:44:09;;;;;;;8.43;7.82;;;;;;;33.83;31.43;96868.97;5027456;28;20460;-58
2022/07/16 10:46:55;;;;;;;8.35;7.80;;;;;;;33.84;31.56;96882.03;5027190;28;20057;-58
2022/07/16 10:49:24;;;;;;;8.68;7.97;;;;;;;33.78;31.41;96868.47;5007182;28;20076;-66
2022/07/16 10:52:03;;;;;;;8.80;8.07;;;;;;;34.25;30.25;96859.88;5007344;28;20062;-68
2022/07/16 10:54:35;;;;;;;8.32;7.80;;;;;;;34.53;30.14;96851.84;5005711;28;20053;-66
2022/07/16 10:57:10;;;;;;;7.57;7.10;;;;;;;34.40;30.48;96860.31;5007200;28;20136;-58
2022/07/16 10:59:43;;;;;;;7.22;6.72;;;;;;;34.58;30.64;96865.41;5007187;28;20064;-68
2022/07/16 11:02:11;;;;;;;7.28;6.78;;;;;;;34.86;30.33;96863.06;5005951;28;20056;-65
2022/07/16 11:04:40;;;;;;;7.88;7.25;;;;;;;34.28;30.66;96804.13;5005515;28;20049;-57
2022/07/16 11:07:15;;;;;;;8.55;7.43;;;;;;;34.48;30.18;96867.03;5007321;28;20061;-57
2022/07/16 11:09:44;;;;;;;7.40;6.95;;;;;;;34.49;30.74;96868.63;5007034;28;20340;-66
2022/07/16 11:12:25;;;;;;;8.95;7.95;;;;;;;34.35;30.18;96858.25;5006810;28;20049;-58
2022/07/16 11:14:54;;;;;;;7.47;6.97;;;;;;;34.49;30.13;96868.63;5006985;28;20050;-59
2022/07/16 11:17:24;;;;;;;7.07;6.68;;;;;;;33.88;30.87;96843.06;5007173;28;20432;-59
2022/07/16 11:19:55;;;;;;;7.95;7.55;;;;;;;34.00;31.87;96863.94;5007025;28;20081;-59
2022/07/16 11:22:26;;;;;;;7.63;7.03;;;;;;;33.91;31.67;96861.38;5006795;28;20102;-65
2022/07/16 11:24:54;;;;;;;8.43;7.68;;;;;;;33.88;32.08;96848.06;5006792;28;20085;-58
2022/07/16 11:27:36;;;;;;;7.90;7.32;;;;;;;33.72;31.33;96807.34;5006408;28;20069;-58
2022/07/16 11:30:09;;;;;;;8.13;7.43;;;;;;;34.13;31.63;96864.13;5005335;28;20050;-59
2022/07/16 11:32:43;;;;;;;7.55;6.95;;;;;;;31.39;31.13;96391.94;5006189;28;20056;-58
2022/07/16 11:35:11;;;;;;;7.43;6.90;;;;;;;33.81;30.92;96797.66;5006830;28;20062;-57
2022/07/16 11:38:06;;;;;;;8.20;7.60;;;;;;;34.46;30.31;96861.06;5006806;28;20464;-68
2022/07/16 11:40:35;;;;;;;7.45;7.00;;;;;;;34.25;30.43;96871.38;5004602;28;20050;-59
2022/07/16 11:43:02;;;;;;;7.38;7.00;;;;;;;34.21;30.31;96847.88;5006686;28;20054;-58
2022/07/16 11:45:39;;;;;;;8.73;8.10;;;;;;;34.24;30.76;96858.31;5005126;28;20050;-58
2022/07/16 11:48:14;;;;;;;7.72;7.28;;;;;;;33.95;30.81;96865.53;5018562;28;20049;-66